createdAt,value
2022-10-17T00:13:06.000Z,979.4
2022-10-17T00:43:08.000Z,979.7
2022-10-17T01:13:15.000Z,979.7
2022-10-17T01:43:17.000Z,979.6
2022-10-17T02:13:20.000Z,979.7
2022-10-17T02:43:21.000Z,979.7
2022-10-17T03:13:26.000Z,979.9
2022-10-17T03:43:27.000Z,980.0
2022-10-17T04:13:28.000Z,980.2
2022-10-17T04:43:29.000Z,980.3
2022-10-17T05:13:38.000Z,980.3
2022-10-17T05:43:42.000Z,980.6
2022-10-17T06:13:49.000Z,980.9
2022-10-17T06:44:00.786Z,981.2
2022-10-17T07:14:00.872Z,981.6
2022-10-17T07:44:01.809Z,981.9
2022-10-17T08:14:11.000Z,981.8
2022-10-17T08:44:13.834Z,982
2022-10-17T09:14:22.000Z,981.8
2022-10-17T09:44:25.000Z,981.7
2022-10-17T10:14:28.000Z,981.6
2022-10-17T10:44:31.000Z,981.7
2022-10-17T11:14:32.000Z,981.9
2022-10-17T11:44:33.000Z,982.0
2022-10-17T12:14:41.638Z,982.1
2022-10-17T12:44:44.739Z,981.9
2022-10-17T13:14:53.702Z,981.7
2022-10-17T13:45:01.753Z,981.6
2022-10-17T14:15:12.754Z,981.6
2022-10-17T14:45:13.867Z,981.6
2022-10-17T15:15:16.838Z,981.6
2022-10-17T15:45:25.874Z,981.8
2022-10-17T16:15:35.928Z,981.8
2022-10-17T16:45:43.954Z,982.2
2022-10-17T17:15:46.984Z,982.5
2022-10-17T17:45:47.928Z,982.7
2022-10-17T18:15:57.321Z,983.2
2022-10-17T18:46:00.232Z,983.3
2022-10-17T19:16:01.297Z,983.5
2022-10-17T19:46:04.269Z,983.7
2022-10-17T20:16:15.000Z,983.6
2022-10-17T20:46:17.000Z,983.8
2022-10-17T21:16:19.000Z,984.0
2022-10-17T21:46:29.000Z,984.0
2022-10-17T22:16:31.000Z,984.0
2022-10-17T22:46:41.000Z,984.0
2022-10-17T23:16:44.000Z,983.6
2022-10-17T23:46:53.000Z,983.6
